createdAt,value
2018-03-11T00:00:46.603Z,878.96
2018-03-11T00:02:07.591Z,879.01
2018-03-11T00:02:46.570Z,879.00
2018-03-11T00:04:07.560Z,879.00
2018-03-11T00:04:46.541Z,878.95
2018-03-11T00:05:46.528Z,878.96
2018-03-11T00:07:07.521Z,878.92
2018-03-11T00:07:46.507Z,878.89
2018-03-11T00:09:07.499Z,878.86
2018-03-11T00:09:46.480Z,878.86
2018-03-11T00:10:46.460Z,878.82
2018-03-11T00:12:07.458Z,878.80
2018-03-11T00:12:46.438Z,878.79
2018-03-11T00:14:07.427Z,878.72
2018-03-11T00:14:46.410Z,878.65
2018-03-11T00:15:46.403Z,878.64
2018-03-11T00:17:07.393Z,878.59
2018-03-11T00:17:46.375Z,878.58
2018-03-11T00:19:07.364Z,878.55
2018-03-11T00:19:46.349Z,878.53
2018-03-11T00:20:46.334Z,878.47
2018-03-11T00:22:07.329Z,878.48
2018-03-11T00:22:46.301Z,878.47
2018-03-11T00:24:07.294Z,878.50
2018-03-11T00:24:46.277Z,878.48
2018-03-11T00:25:46.264Z,878.43
2018-03-11T00:27:07.253Z,878.40
2018-03-11T00:27:46.238Z,878.42
2018-03-11T00:29:07.511Z,878.38
2018-03-11T00:29:46.210Z,878.37
2018-03-11T00:30:46.192Z,878.35
2018-03-11T00:32:07.185Z,878.31
2018-03-11T00:32:46.168Z,878.25
2018-03-11T00:34:07.157Z,878.30
2018-03-11T00:34:46.163Z,878.24
2018-03-11T00:35:46.134Z,878.16
2018-03-11T00:37:07.119Z,878.13
2018-03-11T00:37:46.104Z,878.06
2018-03-11T00:39:07.096Z,878.04
2018-03-11T00:39:46.081Z,878.04
2018-03-11T00:40:46.069Z,878.02
2018-03-11T00:42:07.053Z,878.02
2018-03-11T00:42:46.034Z,878.07
2018-03-11T00:44:07.019Z,878.09
2018-03-11T00:44:46.004Z,878.10
2018-03-11T00:45:46.028Z,878.06
2018-03-11T00:47:06.983Z,878.07
2018-03-11T00:47:45.972Z,878.10
2018-03-11T00:49:06.961Z,878.11
2018-03-11T00:49:45.938Z,878.16
2018-03-11T00:50:45.925Z,878.15
2018-03-11T00:52:06.910Z,878.19
2018-03-11T00:52:45.898Z,878.17
2018-03-11T00:54:06.890Z,878.17
2018-03-11T00:54:45.871Z,878.18
2018-03-11T00:55:45.856Z,878.20
2018-03-11T00:57:06.853Z,878.22
2018-03-11T00:57:45.833Z,878.16
2018-03-11T00:59:06.825Z,878.14
2018-03-11T00:59:45.808Z,878.10
2018-03-11T01:00:45.797Z,878.06
2018-03-11T01:02:06.783Z,878.02
2018-03-11T01:02:45.768Z,877.98
2018-03-11T01:04:06.762Z,877.94
2018-03-11T01:04:45.739Z,877.90
2018-03-11T01:05:45.724Z,877.86
2018-03-11T01:07:06.716Z,877.89
2018-03-11T01:07:45.699Z,877.87
2018-03-11T01:09:06.682Z,877.83
2018-03-11T01:09:45.671Z,877.82
2018-03-11T01:10:45.667Z,877.75
2018-03-11T01:12:06.646Z,877.74
2018-03-11T01:12:45.628Z,877.72
2018-03-11T01:14:06.624Z,877.66
2018-03-11T01:14:45.605Z,877.61
2018-03-11T01:15:45.591Z,877.60
2018-03-11T01:17:06.679Z,877.53
2018-03-11T01:17:45.561Z,877.55
2018-03-11T01:19:06.552Z,877.51
2018-03-11T01:19:45.535Z,877.54
2018-03-11T01:20:45.522Z,877.46
2018-03-11T01:22:06.573Z,877.40
2018-03-11T01:22:45.496Z,877.43
2018-03-11T01:24:06.492Z,877.41
2018-03-11T01:24:45.471Z,877.41
2018-03-11T01:25:45.455Z,877.37
2018-03-11T01:27:06.446Z,877.37
2018-03-11T01:27:45.426Z,877.31
2018-03-11T01:29:06.456Z,877.29
2018-03-11T01:29:45.401Z,877.28
2018-03-11T01:30:45.388Z,877.21
2018-03-11T01:32:06.379Z,877.22
2018-03-11T01:32:45.358Z,877.20
2018-03-11T01:34:06.422Z,877.18
2018-03-11T01:34:45.335Z,877.21
2018-03-11T01:35:45.320Z,877.21
2018-03-11T01:37:06.311Z,877.21
2018-03-11T01:37:45.300Z,877.21
2018-03-11T01:39:06.370Z,877.17
2018-03-11T01:39:45.273Z,877.17
2018-03-11T01:40:45.256Z,877.13
2018-03-11T01:42:06.242Z,877.12
2018-03-11T01:42:45.231Z,877.12
2018-03-11T01:44:06.220Z,877.07
2018-03-11T01:44:45.202Z,877.06
2018-03-11T01:45:45.191Z,877.05
2018-03-11T01:47:06.178Z,877.02
2018-03-11T01:47:45.160Z,876.97
2018-03-11T01:49:06.151Z,876.94
2018-03-11T01:49:45.140Z,876.95
2018-03-11T01:50:45.117Z,876.98
2018-03-11T01:52:06.113Z,876.95
2018-03-11T01:52:45.094Z,877.00
2018-03-11T01:54:06.088Z,877.06
2018-03-11T01:54:45.069Z,877.02
2018-03-11T01:55:45.053Z,877.08
2018-03-11T01:57:06.048Z,877.00
2018-03-11T01:57:45.027Z,877.03
2018-03-11T01:59:06.022Z,877.00
2018-03-11T01:59:44.994Z,877.00
2018-03-11T02:00:44.985Z,876.98
2018-03-11T02:02:05.982Z,876.93
2018-03-11T02:02:44.962Z,876.89
2018-03-11T02:04:05.950Z,876.83
2018-03-11T02:04:44.945Z,876.82
2018-03-11T02:05:44.926Z,876.78
2018-03-11T02:07:05.909Z,876.77
2018-03-11T02:07:44.896Z,876.70
2018-03-11T02:09:05.893Z,876.67
2018-03-11T02:09:44.868Z,876.67
2018-03-11T02:10:44.855Z,876.62
2018-03-11T02:12:05.840Z,876.65
2018-03-11T02:12:44.831Z,876.73
2018-03-11T02:14:05.827Z,876.78
2018-03-11T02:14:44.803Z,876.85
2018-03-11T02:15:44.788Z,876.89
2018-03-11T02:17:05.781Z,876.89
2018-03-11T02:17:44.762Z,876.90
2018-03-11T02:19:05.754Z,876.92
2018-03-11T02:19:44.736Z,876.90
2018-03-11T02:20:44.726Z,876.93
2018-03-11T02:22:05.711Z,876.95
2018-03-11T02:22:44.712Z,876.96
2018-03-11T02:24:05.687Z,877.02
2018-03-11T02:24:44.671Z,876.98
2018-03-11T02:25:44.652Z,876.98
2018-03-11T02:27:05.648Z,876.95
2018-03-11T02:27:44.628Z,876.93
2018-03-11T02:29:05.622Z,876.97
2018-03-11T02:29:44.599Z,876.96
2018-03-11T02:30:44.588Z,876.93
2018-03-11T02:32:05.580Z,876.88
2018-03-11T02:32:44.564Z,876.82
2018-03-11T02:34:05.552Z,876.68
2018-03-11T02:34:44.533Z,876.60
2018-03-11T02:35:44.519Z,876.60
2018-03-11T02:37:05.507Z,876.62
2018-03-11T02:37:44.492Z,876.66
2018-03-11T02:39:05.482Z,876.65
2018-03-11T02:39:44.472Z,876.67
2018-03-11T02:40:44.449Z,876.68
2018-03-11T02:42:05.447Z,876.72
2018-03-11T02:42:44.426Z,876.71
2018-03-11T02:44:05.424Z,876.71
2018-03-11T02:44:44.401Z,876.62
2018-03-11T02:45:44.391Z,876.53
2018-03-11T02:47:05.377Z,876.52
2018-03-11T02:47:44.367Z,876.60
2018-03-11T02:49:05.354Z,876.60
2018-03-11T02:49:44.338Z,876.57
2018-03-11T02:50:44.323Z,876.45
2018-03-11T02:52:05.306Z,876.30
2018-03-11T02:52:44.289Z,876.22
2018-03-11T02:54:05.282Z,876.20
2018-03-11T02:54:44.267Z,876.25
2018-03-11T02:55:44.254Z,876.30
2018-03-11T02:57:05.244Z,876.29
2018-03-11T02:57:44.221Z,876.31
2018-03-11T02:59:05.213Z,876.31
2018-03-11T02:59:44.195Z,876.23
2018-03-11T03:00:44.187Z,876.30
2018-03-11T03:02:05.175Z,876.26
2018-03-11T03:02:44.164Z,876.22
2018-03-11T03:04:05.145Z,876.12
2018-03-11T03:04:44.140Z,876.09
2018-03-11T03:05:44.122Z,876.03
2018-03-11T03:07:05.112Z,876.03
2018-03-11T03:07:44.093Z,876.01
2018-03-11T03:09:05.082Z,876.06
2018-03-11T03:09:44.085Z,876.12
2018-03-11T03:10:44.053Z,876.11
2018-03-11T03:12:05.042Z,876.08
2018-03-11T03:12:44.024Z,876.02
2018-03-11T03:14:05.010Z,875.94
2018-03-11T03:14:43.993Z,875.85
2018-03-11T03:15:43.984Z,875.77
2018-03-11T03:17:04.975Z,875.63
2018-03-11T03:17:43.956Z,875.56
2018-03-11T03:19:04.945Z,875.51
2018-03-11T03:19:43.931Z,875.49
2018-03-11T03:20:43.910Z,875.50
2018-03-11T03:22:04.906Z,875.49
2018-03-11T03:22:43.887Z,875.49
2018-03-11T03:24:04.882Z,875.45
2018-03-11T03:24:43.869Z,875.48
2018-03-11T03:25:43.852Z,875.57
2018-03-11T03:27:04.836Z,875.59
2018-03-11T03:27:43.821Z,875.61
2018-03-11T03:29:04.814Z,875.60
2018-03-11T03:29:43.795Z,875.67
2018-03-11T03:30:43.820Z,875.75
2018-03-11T03:32:04.771Z,875.82
2018-03-11T03:32:43.751Z,875.86
2018-03-11T03:34:04.748Z,875.91
2018-03-11T03:34:43.727Z,875.81
2018-03-11T03:35:43.715Z,875.70
2018-03-11T03:37:04.706Z,875.72
2018-03-11T03:37:43.686Z,875.71
2018-03-11T03:39:04.678Z,875.63
2018-03-11T03:39:43.663Z,875.54
2018-03-11T03:40:43.650Z,875.48
2018-03-11T03:42:04.640Z,875.47
2018-03-11T03:42:43.618Z,875.50
2018-03-11T03:44:04.614Z,875.55
2018-03-11T03:44:43.596Z,875.58
2018-03-11T03:45:43.581Z,875.62
2018-03-11T03:47:04.567Z,875.63
2018-03-11T03:47:43.551Z,875.62
2018-03-11T03:49:04.543Z,875.63
2018-03-11T03:49:43.533Z,875.59
2018-03-11T03:50:43.508Z,875.58
2018-03-11T03:52:04.506Z,875.58
2018-03-11T03:52:43.483Z,875.60
2018-03-11T03:54:04.478Z,875.61
2018-03-11T03:54:43.466Z,875.59
2018-03-11T03:55:43.452Z,875.56
2018-03-11T03:57:04.436Z,875.57
2018-03-11T03:57:43.417Z,875.57
2018-03-11T03:59:04.407Z,875.52
2018-03-11T03:59:43.387Z,875.56
2018-03-11T04:00:43.373Z,875.55
2018-03-11T04:02:04.368Z,875.60
2018-03-11T04:02:43.358Z,875.63
2018-03-11T04:04:04.340Z,875.59
2018-03-11T04:04:43.326Z,875.54
2018-03-11T04:05:43.320Z,875.54
2018-03-11T04:07:04.304Z,875.60
2018-03-11T04:07:43.282Z,875.62
2018-03-11T04:09:04.274Z,875.68
2018-03-11T04:09:43.262Z,875.66
2018-03-11T04:10:43.247Z,875.62
2018-03-11T04:12:04.235Z,875.62
2018-03-11T04:12:43.219Z,875.61
2018-03-11T04:14:04.207Z,875.62
2018-03-11T04:14:43.188Z,875.59
2018-03-11T04:15:43.177Z,875.57
2018-03-11T04:17:04.165Z,875.53
2018-03-11T04:17:43.152Z,875.61
2018-03-11T04:19:04.140Z,875.57
2018-03-11T04:19:43.122Z,875.56
2018-03-11T04:20:43.114Z,875.50
2018-03-11T04:22:04.098Z,875.49
2018-03-11T04:22:43.085Z,875.46
2018-03-11T04:24:04.078Z,875.38
2018-03-11T04:24:43.060Z,875.39
2018-03-11T04:25:43.046Z,875.33
2018-03-11T04:27:04.029Z,875.29
2018-03-11T04:27:43.012Z,875.16
2018-03-11T04:29:04.003Z,875.12
2018-03-11T04:29:42.989Z,875.08
2018-03-11T04:30:42.982Z,874.97
2018-03-11T04:32:03.966Z,874.92
2018-03-11T04:32:42.954Z,874.92
2018-03-11T04:34:03.939Z,874.98
2018-03-11T04:34:42.921Z,875.10
2018-03-11T04:35:42.912Z,875.21
2018-03-11T04:37:03.901Z,875.30
2018-03-11T04:37:42.879Z,875.34
2018-03-11T04:39:03.869Z,875.34
2018-03-11T04:39:42.851Z,875.31
2018-03-11T04:40:42.843Z,875.31
2018-03-11T04:42:03.834Z,875.28
2018-03-11T04:42:42.813Z,875.25
2018-03-11T04:44:03.808Z,875.23
2018-03-11T04:44:42.790Z,875.24
2018-03-11T04:45:42.776Z,875.24
2018-03-11T04:47:03.763Z,875.12
2018-03-11T04:47:42.768Z,875.11
2018-03-11T04:49:03.746Z,875.08
2018-03-11T04:49:42.723Z,875.03
2018-03-11T04:50:42.707Z,875.00
2018-03-11T04:52:03.697Z,875.00
2018-03-11T04:52:42.683Z,874.95
2018-03-11T04:54:03.674Z,874.88
2018-03-11T04:54:42.657Z,874.89
2018-03-11T04:55:42.637Z,874.90
2018-03-11T04:57:03.630Z,874.87
2018-03-11T04:57:42.616Z,874.91
2018-03-11T04:59:03.602Z,874.99
2018-03-11T04:59:42.588Z,875.00
2018-03-11T05:00:42.577Z,875.02
2018-03-11T05:02:03.564Z,875.04
2018-03-11T05:02:42.547Z,875.02
2018-03-11T05:04:03.540Z,875.03
2018-03-11T05:04:42.513Z,875.01
2018-03-11T05:05:42.508Z,874.97
2018-03-11T05:07:03.496Z,874.95
2018-03-11T05:07:42.489Z,874.91
2018-03-11T05:09:03.477Z,874.77
2018-03-11T05:09:42.456Z,874.70
2018-03-11T05:10:42.440Z,874.60
2018-03-11T05:12:03.428Z,874.57
2018-03-11T05:12:42.419Z,874.56
2018-03-11T05:14:03.405Z,874.63
2018-03-11T05:14:42.387Z,874.65
2018-03-11T05:15:42.376Z,874.64
2018-03-11T05:17:03.364Z,874.62
2018-03-11T05:17:42.348Z,874.66
2018-03-11T05:19:03.334Z,874.69
2018-03-11T05:19:42.315Z,874.68
2018-03-11T05:20:42.305Z,874.64
2018-03-11T05:22:03.304Z,874.67
2018-03-11T05:22:42.281Z,874.65
2018-03-11T05:24:03.274Z,874.65
2018-03-11T05:24:42.252Z,874.67
2018-03-11T05:25:42.245Z,874.66
2018-03-11T05:27:03.251Z,874.72
2018-03-11T05:27:42.219Z,874.68
2018-03-11T05:29:03.203Z,874.78
2018-03-11T05:29:42.218Z,874.85
2018-03-11T05:30:42.176Z,874.96
2018-03-11T05:32:03.166Z,875.07
2018-03-11T05:32:42.167Z,875.06
2018-03-11T05:34:03.137Z,875.00
2018-03-11T05:34:42.126Z,874.93
2018-03-11T05:35:42.109Z,874.93
2018-03-11T05:37:03.103Z,874.93
2018-03-11T05:37:42.082Z,874.96
2018-03-11T05:39:03.068Z,874.94
2018-03-11T05:39:42.056Z,874.92
2018-03-11T05:40:42.040Z,874.90
2018-03-11T05:42:03.034Z,874.93
2018-03-11T05:42:42.008Z,874.91
2018-03-11T05:44:03.006Z,874.90
2018-03-11T05:44:41.983Z,874.83
2018-03-11T05:45:41.976Z,874.86
2018-03-11T05:47:02.967Z,874.89
2018-03-11T05:47:41.952Z,874.86
2018-03-11T05:49:02.937Z,874.83
2018-03-11T05:49:41.926Z,874.78
2018-03-11T05:50:41.911Z,874.74
2018-03-11T05:52:02.905Z,874.75
2018-03-11T05:52:41.891Z,874.64
2018-03-11T05:54:02.875Z,874.64
2018-03-11T05:54:41.852Z,874.60
2018-03-11T05:55:41.841Z,874.58
2018-03-11T05:57:02.836Z,874.49
2018-03-11T05:57:41.808Z,874.50
2018-03-11T05:59:02.799Z,874.42
2018-03-11T05:59:41.822Z,874.39
2018-03-11T06:00:41.772Z,874.38
2018-03-11T06:02:02.767Z,874.33
2018-03-11T06:02:41.747Z,874.26
2018-03-11T06:04:02.745Z,874.19
2018-03-11T06:04:41.719Z,874.15
2018-03-11T06:05:41.712Z,874.12
2018-03-11T06:07:02.696Z,874.11
2018-03-11T06:07:41.682Z,874.07
2018-03-11T06:09:02.673Z,874.04
2018-03-11T06:09:41.657Z,873.95
2018-03-11T06:10:41.644Z,873.91
2018-03-11T06:12:02.640Z,873.84
2018-03-11T06:12:41.617Z,873.78
2018-03-11T06:14:02.605Z,873.76
2018-03-11T06:14:41.583Z,873.75
2018-03-11T06:15:41.583Z,873.77
2018-03-11T06:17:02.566Z,873.78
2018-03-11T06:17:41.546Z,873.80
2018-03-11T06:19:02.542Z,873.79
2018-03-11T06:19:41.520Z,873.75
2018-03-11T06:20:41.506Z,873.70
2018-03-11T06:22:02.497Z,873.72
2018-03-11T06:22:41.485Z,873.69
2018-03-11T06:24:02.470Z,873.66
2018-03-11T06:24:41.454Z,873.65
2018-03-11T06:25:41.446Z,873.63
2018-03-11T06:27:02.437Z,873.63
2018-03-11T06:27:41.419Z,873.56
2018-03-11T06:29:02.425Z,873.58
2018-03-11T06:29:41.392Z,873.61
2018-03-11T06:30:41.378Z,873.60
2018-03-11T06:32:02.371Z,873.59
2018-03-11T06:32:41.350Z,873.53
2018-03-11T06:34:02.342Z,873.54
2018-03-11T06:34:41.325Z,873.58
2018-03-11T06:35:41.306Z,873.64
2018-03-11T06:37:02.306Z,873.68
2018-03-11T06:37:41.284Z,873.70
2018-03-11T06:39:02.274Z,873.73
2018-03-11T06:39:41.255Z,873.72
2018-03-11T06:40:41.244Z,873.68
2018-03-11T06:42:02.239Z,873.70
2018-03-11T06:42:41.216Z,873.73
2018-03-11T06:44:02.213Z,873.75
2018-03-11T06:44:41.192Z,873.88
2018-03-11T06:45:41.178Z,873.87
2018-03-11T06:47:02.169Z,873.88
2018-03-11T06:47:41.153Z,873.87
2018-03-11T06:49:02.147Z,873.91
2018-03-11T06:49:41.128Z,873.92
2018-03-11T06:50:41.111Z,873.94
2018-03-11T06:52:02.103Z,873.89
2018-03-11T06:52:41.087Z,873.93
2018-03-11T06:54:02.081Z,873.82
2018-03-11T06:54:41.059Z,873.83
2018-03-11T06:55:41.056Z,873.84
2018-03-11T06:57:02.042Z,873.81
2018-03-11T06:57:41.026Z,873.83
2018-03-11T06:59:02.017Z,873.83
2018-03-11T06:59:40.998Z,873.87
2018-03-11T07:00:40.989Z,873.86
2018-03-11T07:02:01.978Z,873.85
2018-03-11T07:02:40.961Z,873.79
2018-03-11T07:04:01.949Z,873.76
2018-03-11T07:04:40.940Z,873.72
2018-03-11T07:05:40.919Z,873.77
2018-03-11T07:07:01.912Z,873.77
2018-03-11T07:07:40.889Z,873.80
2018-03-11T07:09:01.878Z,873.79
2018-03-11T07:09:40.869Z,873.76
2018-03-11T07:10:40.856Z,873.80
2018-03-11T07:12:01.854Z,873.78
2018-03-11T07:12:40.828Z,873.80
2018-03-11T07:14:01.823Z,873.83
2018-03-11T07:14:40.805Z,873.86
2018-03-11T07:15:40.797Z,873.85
2018-03-11T07:17:01.781Z,873.87
2018-03-11T07:17:40.765Z,873.81
2018-03-11T07:19:01.753Z,873.82
2018-03-11T07:19:40.740Z,873.78
2018-03-11T07:20:40.727Z,873.86
2018-03-11T07:22:01.716Z,873.87
2018-03-11T07:22:40.702Z,873.84
2018-03-11T07:24:01.686Z,873.74
2018-03-11T07:24:40.676Z,873.70
2018-03-11T07:25:40.669Z,873.69
2018-03-11T07:27:01.652Z,873.67
2018-03-11T07:27:40.640Z,873.63
2018-03-11T07:29:01.633Z,873.62
2018-03-11T07:29:40.609Z,873.63
2018-03-11T07:30:40.600Z,873.55
2018-03-11T07:32:01.588Z,873.52
2018-03-11T07:32:40.575Z,873.54
2018-03-11T07:34:01.567Z,873.56
2018-03-11T07:34:40.542Z,873.52
2018-03-11T07:35:40.538Z,873.54
2018-03-11T07:37:01.528Z,873.51
2018-03-11T07:37:40.503Z,873.54
2018-03-11T07:39:01.500Z,873.58
2018-03-11T07:39:40.479Z,873.54
2018-03-11T07:40:40.469Z,873.58
2018-03-11T07:42:01.462Z,873.57
2018-03-11T07:42:40.446Z,873.60
2018-03-11T07:44:01.435Z,873.53
2018-03-11T07:44:40.415Z,873.57
2018-03-11T07:45:40.411Z,873.52
2018-03-11T07:47:01.397Z,873.53
2018-03-11T07:47:40.382Z,873.58
2018-03-11T07:49:01.374Z,873.59
2018-03-11T07:49:40.363Z,873.64
2018-03-11T07:50:40.346Z,873.65
2018-03-11T07:52:01.338Z,873.70
2018-03-11T07:52:40.326Z,873.73
2018-03-11T07:54:01.310Z,873.69
2018-03-11T07:54:40.340Z,873.67
2018-03-11T07:55:40.283Z,873.66
2018-03-11T07:57:01.270Z,873.63
2018-03-11T07:57:40.255Z,873.68
2018-03-11T07:59:01.244Z,873.70
2018-03-11T07:59:40.233Z,873.66
2018-03-11T08:00:40.219Z,873.60
2018-03-11T08:02:01.212Z,873.64
2018-03-11T08:02:40.198Z,873.61
2018-03-11T08:04:01.188Z,873.57
2018-03-11T08:04:40.171Z,873.55
2018-03-11T08:05:40.158Z,873.57
2018-03-11T08:07:01.148Z,873.63
2018-03-11T08:07:40.135Z,873.62
2018-03-11T08:09:01.139Z,873.62
2018-03-11T08:09:40.106Z,873.62
2018-03-11T08:10:40.092Z,873.64
2018-03-11T08:12:01.083Z,873.67
2018-03-11T08:12:40.100Z,873.68
2018-03-11T08:14:01.058Z,873.69
2018-03-11T08:14:40.046Z,873.72
2018-03-11T08:15:40.030Z,873.65
2018-03-11T08:17:01.027Z,873.68
2018-03-11T08:17:40.011Z,873.70
2018-03-11T08:19:01.001Z,873.68
2018-03-11T08:19:39.984Z,873.65
2018-03-11T08:20:39.976Z,873.63
2018-03-11T08:22:00.966Z,873.62
2018-03-11T08:22:39.949Z,873.63
2018-03-11T08:24:00.942Z,873.60
2018-03-11T08:24:39.922Z,873.59
2018-03-11T08:25:39.912Z,873.56
2018-03-11T08:27:00.899Z,873.59
2018-03-11T08:27:39.890Z,873.59
2018-03-11T08:29:00.878Z,873.57
2018-03-11T08:29:39.862Z,873.48
2018-03-11T08:30:39.862Z,873.48
2018-03-11T08:32:00.846Z,873.52
2018-03-11T08:32:39.840Z,873.54
2018-03-11T08:34:00.819Z,873.50
2018-03-11T08:34:39.809Z,873.48
2018-03-11T08:35:39.811Z,873.41
2018-03-11T08:37:00.790Z,873.39
2018-03-11T08:37:39.771Z,873.39
2018-03-11T08:39:00.767Z,873.40
2018-03-11T08:39:39.746Z,873.41
2018-03-11T08:40:39.734Z,873.34
2018-03-11T08:42:00.735Z,873.37
2018-03-11T08:42:39.716Z,873.34
2018-03-11T08:44:00.700Z,873.28
2018-03-11T08:44:39.689Z,873.28
2018-03-11T08:45:39.673Z,873.26
2018-03-11T08:47:00.668Z,873.27
2018-03-11T08:47:39.657Z,873.29
2018-03-11T08:49:00.647Z,873.28
2018-03-11T08:49:39.636Z,873.29
2018-03-11T08:50:39.613Z,873.26
2018-03-11T08:52:00.608Z,873.22
2018-03-11T08:52:39.594Z,873.19
2018-03-11T08:54:00.591Z,873.17
2018-03-11T08:54:39.569Z,873.17
2018-03-11T08:55:39.560Z,873.17
2018-03-11T08:57:00.551Z,873.18
2018-03-11T08:57:39.539Z,873.17
2018-03-11T08:59:00.533Z,873.14
2018-03-11T08:59:39.513Z,873.11
2018-03-11T09:00:39.503Z,873.11
2018-03-11T09:02:00.497Z,873.11
2018-03-11T09:02:39.482Z,873.09
2018-03-11T09:04:00.475Z,873.05
2018-03-11T09:04:39.461Z,873.12
2018-03-11T09:05:39.442Z,873.12
2018-03-11T09:07:00.440Z,873.09
2018-03-11T09:07:39.420Z,873.08
2018-03-11T09:09:00.417Z,873.03
2018-03-11T09:09:39.397Z,873.01
2018-03-11T09:10:39.388Z,872.98
2018-03-11T09:12:00.388Z,872.95
2018-03-11T09:12:39.371Z,872.90
2018-03-11T09:14:00.362Z,872.94
2018-03-11T09:14:39.348Z,872.89
2018-03-11T09:15:39.335Z,872.88
2018-03-11T09:17:00.326Z,872.78
2018-03-11T09:17:39.312Z,872.77
2018-03-11T09:19:00.303Z,872.81
2018-03-11T09:19:39.294Z,872.87
2018-03-11T09:20:39.278Z,872.83
2018-03-11T09:22:00.274Z,872.71
2018-03-11T09:22:39.258Z,872.73
2018-03-11T09:24:00.249Z,872.78
2018-03-11T09:24:39.236Z,872.84
2018-03-11T09:25:39.226Z,872.83
2018-03-11T09:27:00.220Z,872.78
2018-03-11T09:27:39.198Z,872.76
2018-03-11T09:29:00.199Z,872.71
2018-03-11T09:29:39.180Z,872.68
2018-03-11T09:30:39.175Z,872.69
2018-03-11T09:32:00.164Z,872.68
2018-03-11T09:32:39.148Z,872.63
2018-03-11T09:34:00.142Z,872.53
2018-03-11T09:34:39.121Z,872.53
2018-03-11T09:35:39.115Z,872.49
2018-03-11T09:37:00.112Z,872.49
2018-03-11T09:37:39.100Z,872.50
2018-03-11T09:39:00.090Z,872.49
2018-03-11T09:39:39.075Z,872.46
2018-03-11T09:40:39.066Z,872.46
2018-03-11T09:42:00.055Z,872.43
2018-03-11T09:42:39.045Z,872.42
2018-03-11T09:44:00.035Z,872.42
2018-03-11T09:44:39.025Z,872.36
2018-03-11T09:45:39.006Z,872.27
2018-03-11T09:47:00.007Z,872.28
2018-03-11T09:47:38.984Z,872.33
2018-03-11T09:48:59.980Z,872.26
2018-03-11T09:49:38.965Z,872.32
2018-03-11T09:50:38.952Z,872.30
2018-03-11T09:51:59.950Z,872.25
2018-03-11T09:52:38.932Z,872.23
2018-03-11T09:53:59.930Z,872.20
2018-03-11T09:54:38.912Z,872.29
2018-03-11T09:55:38.898Z,872.27
2018-03-11T09:56:59.924Z,872.30
2018-03-11T09:57:38.881Z,872.30
2018-03-11T09:58:59.878Z,872.35
2018-03-11T09:59:38.861Z,872.31
2018-03-11T10:00:38.848Z,872.26
2018-03-11T10:01:59.843Z,872.33
2018-03-11T10:02:38.831Z,872.37
2018-03-11T10:03:59.824Z,872.39
2018-03-11T10:04:38.805Z,872.35
2018-03-11T10:05:38.795Z,872.20
2018-03-11T10:06:59.795Z,872.17
2018-03-11T10:07:38.780Z,872.21
2018-03-11T10:08:59.771Z,872.27
2018-03-11T10:09:38.757Z,872.28
2018-03-11T10:10:38.799Z,872.12
2018-03-11T10:11:59.736Z,872.25
2018-03-11T10:12:38.724Z,872.24
2018-03-11T10:13:59.720Z,872.29
2018-03-11T10:14:38.699Z,872.07
2018-03-11T10:15:38.703Z,872.04
2018-03-11T10:16:59.686Z,872.16
2018-03-11T10:17:38.676Z,872.23
2018-03-11T10:18:59.670Z,872.21
2018-03-11T10:19:38.655Z,872.27
2018-03-11T10:20:38.649Z,872.23
2018-03-11T10:21:59.637Z,872.03
2018-03-11T10:22:38.623Z,871.99
2018-03-11T10:23:59.622Z,871.95
2018-03-11T10:24:38.601Z,872.04
2018-03-11T10:25:38.598Z,872.10
2018-03-11T10:26:59.593Z,872.11
2018-03-11T10:27:38.579Z,872.04
2018-03-11T10:28:59.577Z,871.96
2018-03-11T10:29:38.562Z,871.99
2018-03-11T10:30:38.549Z,871.95
2018-03-11T10:31:59.548Z,871.94
2018-03-11T10:32:38.531Z,872.01
2018-03-11T10:33:59.528Z,872.02
2018-03-11T10:34:38.514Z,871.83
2018-03-11T10:35:38.505Z,871.74
2018-03-11T10:36:59.500Z,871.79
2018-03-11T10:37:38.486Z,871.80
2018-03-11T10:38:59.481Z,871.82
2018-03-11T10:39:38.473Z,871.90
2018-03-11T10:40:38.460Z,871.83
2018-03-11T10:41:59.459Z,871.94
2018-03-11T10:42:38.448Z,871.94
2018-03-11T10:43:59.447Z,871.88
2018-03-11T10:44:38.426Z,871.81
2018-03-11T10:45:38.422Z,871.84
2018-03-11T10:46:59.415Z,871.84
2018-03-11T10:47:38.404Z,871.79
2018-03-11T10:48:59.402Z,871.80
2018-03-11T10:49:38.389Z,871.87
2018-03-11T10:50:38.374Z,871.89
2018-03-11T10:51:59.370Z,871.83
2018-03-11T10:52:38.364Z,871.71
2018-03-11T10:53:59.366Z,871.61
2018-03-11T10:54:38.346Z,871.57
2018-03-11T10:55:38.377Z,871.45
2018-03-11T10:56:59.341Z,871.38
2018-03-11T10:57:38.326Z,871.41
2018-03-11T10:58:59.322Z,871.47
2018-03-11T10:59:38.308Z,871.51
2018-03-11T11:00:38.297Z,871.56
2018-03-11T11:01:59.299Z,871.32
2018-03-11T11:02:38.285Z,871.26
2018-03-11T11:03:59.914Z,871.35
2018-03-11T11:04:38.269Z,871.24
2018-03-11T11:05:38.265Z,871.14
2018-03-11T11:06:59.266Z,871.18
2018-03-11T11:07:38.247Z,871.15
2018-03-11T11:08:59.252Z,871.16
2018-03-11T11:09:38.240Z,871.19
2018-03-11T11:10:38.228Z,871.16
2018-03-11T11:11:59.226Z,871.12
2018-03-11T11:12:38.211Z,870.98
2018-03-11T11:13:59.208Z,870.95
2018-03-11T11:14:38.194Z,870.94
2018-03-11T11:15:38.184Z,870.97
2018-03-11T11:16:59.184Z,871.00
2018-03-11T11:17:38.169Z,870.95
2018-03-11T11:18:59.169Z,870.94
2018-03-11T11:19:38.155Z,870.93
2018-03-11T11:20:38.150Z,870.97
2018-03-11T11:21:59.148Z,870.88
2018-03-11T11:22:38.136Z,870.85
2018-03-11T11:23:59.135Z,870.88
2018-03-11T11:24:38.116Z,870.89
2018-03-11T11:25:38.157Z,870.82
2018-03-11T11:26:59.105Z,870.78
2018-03-11T11:27:38.091Z,870.69
2018-03-11T11:28:59.093Z,870.67
2018-03-11T11:29:38.080Z,870.64
2018-03-11T11:30:38.071Z,870.70
2018-03-11T11:31:59.069Z,870.70
2018-03-11T11:32:38.054Z,870.63
2018-03-11T11:33:59.062Z,870.63
2018-03-11T11:34:38.037Z,870.59
2018-03-11T11:35:38.030Z,870.66
2018-03-11T11:36:59.032Z,870.64
2018-03-11T11:37:38.013Z,870.61
2018-03-11T11:38:59.008Z,870.63
2018-03-11T11:39:37.994Z,870.68
2018-03-11T11:40:37.992Z,870.61
2018-03-11T11:41:58.990Z,870.66
2018-03-11T11:42:37.971Z,870.52
2018-03-11T11:43:58.964Z,870.49
2018-03-11T11:44:37.958Z,870.49
2018-03-11T11:45:37.947Z,870.40
2018-03-11T11:46:58.943Z,870.43
2018-03-11T11:47:37.935Z,870.44
2018-03-11T11:48:58.932Z,870.47
2018-03-11T11:49:37.917Z,870.54
2018-03-11T11:50:37.909Z,870.46
2018-03-11T11:51:58.908Z,870.51
2018-03-11T11:52:37.899Z,870.37
2018-03-11T11:53:58.894Z,870.33
2018-03-11T11:54:37.877Z,870.32
2018-03-11T11:55:37.868Z,870.43
2018-03-11T11:56:58.866Z,870.33
2018-03-11T11:57:37.855Z,870.26
2018-03-11T11:58:58.855Z,870.29
2018-03-11T11:59:37.840Z,870.16
2018-03-11T12:00:37.834Z,870.22
2018-03-11T12:01:58.837Z,870.20
2018-03-11T12:02:37.820Z,870.16
2018-03-11T12:03:58.817Z,870.19
2018-03-11T12:04:37.807Z,870.21
2018-03-11T12:05:37.797Z,870.25
2018-03-11T12:06:58.800Z,870.30
2018-03-11T12:07:37.786Z,870.23
2018-03-11T12:08:58.784Z,870.24
2018-03-11T12:09:37.769Z,870.24
2018-03-11T12:10:37.756Z,870.30
2018-03-11T12:11:58.759Z,870.23
2018-03-11T12:12:37.746Z,870.28
2018-03-11T12:13:58.760Z,870.24
2018-03-11T12:14:37.731Z,870.15
2018-03-11T12:15:37.722Z,870.14
2018-03-11T12:16:58.725Z,870.12
2018-03-11T12:17:37.714Z,870.20
2018-03-11T12:18:58.709Z,870.24
2018-03-11T12:19:37.699Z,870.22
2018-03-11T12:20:37.698Z,870.20
2018-03-11T12:21:58.695Z,870.13
2018-03-11T12:22:37.717Z,870.08
2018-03-11T12:23:58.679Z,870.10
2018-03-11T12:24:37.668Z,870.12
2018-03-11T12:25:37.655Z,870.12
2018-03-11T12:26:58.651Z,870.11
2018-03-11T12:27:37.643Z,870.14
2018-03-11T12:28:58.645Z,870.16